Time;durP1;ratioP1;P1;durP2;ratioP2;P2;SDS_P1;SDS_P2;PMS_P1;PMS_P2;Temp;Humidity;BMP_temperature;BMP_pressure;BME280_temperature;BME280_humidity;BME280_pressure;Samples;Min_cycle;Max_cycle;Signal;HPM_P1;HPM_P2
2024/01/18 00:01:12;;;;;;;4.05;1.10;;;0.40;99.90;;;;;;5091094;28;20146;-82
2024/01/18 00:03:41;;;;;;;11.68;2.33;;;0.30;99.90;;;;;;5091133;28;20135;-84
2024/01/18 00:06:08;;;;;;;9.05;1.75;;;0.30;99.90;;;;;;5089914;28;20062;-81
2024/01/18 00:08:33;;;;;;;7.18;1.10;;;0.20;99.90;;;;;;5089815;28;20067;-82
2024/01/18 00:11:00;;;;;;;11.15;1.25;;;0.20;99.90;;;;;;5090955;28;20048;-80
2024/01/18 00:13:26;;;;;;;7.32;1.00;;;0.10;99.90;;;;;;5091588;28;20044;-83
2024/01/18 00:15:52;;;;;;;3.83;1.00;;;0.10;99.90;;;;;;5091114;28;20387;-83
2024/01/18 00:18:18;;;;;;;10.57;1.98;;;0.10;99.90;;;;;;5091125;28;20088;-84
2024/01/18 00:20:43;;;;;;;8.23;1.08;;;0.00;99.90;;;;;;5091180;28;20040;-84
2024/01/18 00:23:09;;;;;;;11.98;1.38;;;0.00;99.90;;;;;;5090620;28;20139;-84
2024/01/18 00:25:35;;;;;;;7.25;1.77;;;0.00;99.90;;;;;;5090814;28;20044;-81
2024/01/18 00:28:00;;;;;;;4.47;0.65;;;0.00;99.90;;;;;;5089816;28;20048;-82
2024/01/18 00:30:26;;;;;;;7.88;1.20;;;0.00;99.90;;;;;;5091002;28;20047;-84
2024/01/18 00:32:52;;;;;;;4.53;0.68;;;0.00;99.90;;;;;;5090918;28;20128;-80
2024/01/18 00:35:17;;;;;;;6.85;0.90;;;-0.10;99.90;;;;;;5091084;28;20578;-83
2024/01/18 00:37:43;;;;;;;3.95;1.38;;;-0.10;99.90;;;;;;5090751;28;20051;-79
2024/01/18 00:40:11;;;;;;;4.78;0.60;;;-0.10;99.90;;;;;;5089266;28;20188;-73
2024/01/18 00:42:37;;;;;;;4.00;0.70;;;0.10;99.90;;;;;;5089349;28;20055;-78
2024/01/18 00:45:03;;;;;;;3.53;0.50;;;0.30;99.90;;;;;;5090612;28;20040;-79
2024/01/18 00:47:29;;;;;;;7.22;0.77;;;0.50;99.90;;;;;;5090580;28;20181;-74
2024/01/18 00:49:54;;;;;;;7.07;0.50;;;0.50;99.90;;;;;;5090856;28;20054;-81
2024/01/18 00:52:20;;;;;;;4.47;0.50;;;0.60;99.90;;;;;;5090551;28;20063;-77
2024/01/18 00:54:45;;;;;;;8.15;0.80;;;0.70;99.90;;;;;;5090581;28;20063;-78
2024/01/18 00:57:11;;;;;;;8.18;0.70;;;0.70;99.90;;;;;;5094075;28;20051;-82
2024/01/18 00:59:37;;;;;;;4.80;0.50;;;0.70;99.90;;;;;;5094135;28;20055;-80
2024/01/18 01:02:05;;;;;;;3.55;0.80;;;0.70;99.90;;;;;;5094223;28;20059;-75
2024/01/18 01:04:31;;;;;;;2.40;0.40;;;0.70;99.90;;;;;;5094245;28;20055;-72
2024/01/18 01:06:57;;;;;;;10.30;0.68;;;0.70;99.90;;;;;;5094215;28;20040;-78
2024/01/18 01:09:22;;;;;;;5.07;0.35;;;0.70;99.90;;;;;;5093028;28;20051;-80
2024/01/18 01:11:48;;;;;;;4.30;0.90;;;0.70;99.90;;;;;;5094258;28;20223;-82
2024/01/18 01:14:14;;;;;;;10.20;2.72;;;0.70;99.90;;;;;;5094225;28;20047;-76
2024/01/18 01:16:40;;;;;;;3.88;0.50;;;0.70;99.90;;;;;;5094087;28;20055;-77
2024/01/18 01:19:05;;;;;;;3.25;0.80;;;0.60;99.90;;;;;;5094272;28;20555;-75
2024/01/18 01:21:31;;;;;;;2.22;0.40;;;0.60;99.90;;;;;;5094038;28;20044;-81
2024/01/18 01:23:57;;;;;;;2.40;0.40;;;0.50;99.90;;;;;;5094446;28;20040;-78
2024/01/18 01:26:22;;;;;;;3.45;0.50;;;0.50;99.90;;;;;;5093927;28;20059;-75
2024/01/18 01:28:49;;;;;;;6.68;0.60;;;0.40;99.90;;;;;;5093932;28;20048;-76
2024/01/18 01:31:15;;;;;;;4.78;0.60;;;0.30;99.90;;;;;;5093890;28;20063;-82
2024/01/18 01:33:43;;;;;;;5.00;0.70;;;0.30;99.90;;;;;;5094058;28;20047;-79
2024/01/18 01:36:09;;;;;;;2.72;0.45;;;0.20;99.90;;;;;;5093866;28;20044;-73
2024/01/18 01:38:35;;;;;;;2.38;0.55;;;0.10;99.90;;;;;;5092611;28;20113;-79
2024/01/18 01:41:02;;;;;;;3.88;0.50;;;0.10;99.90;;;;;;5091761;28;20063;-77
2024/01/18 01:43:27;;;;;;;4.63;0.40;;;0.00;99.90;;;;;;5093258;28;20509;-77
2024/01/18 01:45:53;;;;;;;2.67;0.40;;;0.00;99.90;;;;;;5093775;28;20051;-81
2024/01/18 01:48:19;;;;;;;8.25;1.58;;;0.00;99.90;;;;;;5093494;28;20075;-79
2024/01/18 01:50:46;;;;;;;6.72;1.13;;;-0.10;99.90;;;;;;5092070;28;20047;-82
2024/01/18 01:53:13;;;;;;;5.90;0.65;;;-0.20;99.90;;;;;;5093495;28;20067;-78
2024/01/18 01:55:39;;;;;;;6.00;0.63;;;-0.30;99.90;;;;;;5091921;28;20044;-79
2024/01/18 01:58:06;;;;;;;5.10;2.47;;;-0.30;99.90;;;;;;5093123;28;20052;-80
2024/01/18 02:00:32;;;;;;;8.63;2.25;;;-0.40;99.90;;;;;;5092371;28;20047;-82
2024/01/18 02:02:58;;;;;;;3.58;0.55;;;-0.40;99.90;;;;;;5092821;28;20417;-76
2024/01/18 02:05:24;;;;;;;3.35;0.90;;;-0.50;99.90;;;;;;5093561;28;20131;-81
2024/01/18 02:07:49;;;;;;;5.55;0.63;;;-0.40;99.90;;;;;;5091519;28;20062;-83
2024/01/18 02:10:15;;;;;;;5.68;0.57;;;-0.40;99.90;;;;;;5093207;28;20044;-81
2024/01/18 02:12:42;;;;;;;7.30;0.65;;;-0.40;99.90;;;;;;5093091;28;20047;-82
2024/01/18 02:15:08;;;;;;;3.00;0.63;;;-0.50;99.90;;;;;;5091767;28;20044;-84
2024/01/18 02:17:34;;;;;;;9.55;1.30;;;-0.50;99.90;;;;;;5091602;28;20496;-79
2024/01/18 02:20:00;;;;;;;3.85;0.57;;;-0.50;99.90;;;;;;5093021;28;20052;-79
2024/01/18 02:22:27;;;;;;;7.15;0.57;;;-0.50;99.90;;;;;;5091071;28;20127;-79
2024/01/18 02:25:24;;;;;;;6.57;1.02;;;-0.50;99.90;;;;;;5091358;28;20054;-79
2024/01/18 02:27:56;;;;;;;5.20;0.75;;;-0.40;99.90;;;;;;5092703;28;20063;-81
2024/01/18 02:30:22;;;;;;;5.82;1.33;;;-0.30;99.90;;;;;;5092877;28;20052;-81
2024/01/18 02:32:48;;;;;;;9.43;1.67;;;-0.20;99.90;;;;;;5092727;28;20441;-80
2024/01/18 02:35:15;;;;;;;3.63;0.73;;;-0.20;99.90;;;;;;5091285;28;20048;-83
2024/01/18 02:37:41;;;;;;;7.05;0.70;;;-0.20;99.90;;;;;;5091106;28;20109;-82
2024/01/18 02:40:07;;;;;;;2.35;0.45;;;-0.10;99.90;;;;;;5092273;28;20101;-73
2024/01/18 02:42:33;;;;;;;6.55;0.80;;;-0.10;99.90;;;;;;5090835;28;20091;-80
2024/01/18 02:45:01;;;;;;;4.50;0.80;;;-0.10;99.90;;;;;;5091026;28;20096;-80
2024/01/18 02:47:28;;;;;;;4.45;0.65;;;0.00;99.90;;;;;;5092573;28;20063;-83
2024/01/18 02:49:55;;;;;;;3.00;0.40;;;0.10;99.90;;;;;;5092153;28;20044;-79
2024/01/18 02:52:21;;;;;;;5.00;0.98;;;0.10;99.90;;;;;;5094008;28;20055;-78
2024/01/18 02:54:47;;;;;;;7.13;0.85;;;0.20;99.90;;;;;;5092638;28;20040;-80
2024/01/18 02:57:13;;;;;;;7.78;1.35;;;0.30;99.90;;;;;;5090662;28;20075;-73
2024/01/18 02:59:38;;;;;;;9.20;0.93;;;0.50;99.90;;;;;;5090666;28;20082;-75
2024/01/18 03:02:04;;;;;;;5.13;1.92;;;0.70;99.90;;;;;;5092398;28;20060;-75
2024/01/18 03:04:31;;;;;;;9.32;2.00;;;0.90;99.90;;;;;;5092062;28;20083;-79
2024/01/18 03:06:57;;;;;;;4.43;1.45;;;1.00;99.90;;;;;;5091944;28;20082;-81
2024/01/18 03:09:23;;;;;;;5.45;1.20;;;1.10;99.90;;;;;;5092242;28;20428;-77
2024/01/18 03:11:49;;;;;;;7.50;0.90;;;1.10;99.90;;;;;;5090557;28;20083;-78
2024/01/18 03:14:14;;;;;;;6.25;0.63;;;1.10;99.90;;;;;;5091889;28;20499;-80
2024/01/18 03:16:42;;;;;;;6.22;0.60;;;1.10;99.90;;;;;;5091888;28;20055;-82
2024/01/18 03:19:12;;;;;;;5.32;1.25;;;1.20;99.90;;;;;;5089485;28;20090;-81
2024/01/18 03:21:38;;;;;;;3.50;0.73;;;1.20;99.90;;;;;;5090495;28;20048;-79
2024/01/18 03:24:05;;;;;;;3.85;0.75;;;1.20;99.90;;;;;;5090508;28;20091;-78
2024/01/18 03:26:31;;;;;;;6.05;0.60;;;1.20;99.90;;;;;;5091826;28;20113;-76
2024/01/18 03:28:57;;;;;;;2.95;0.50;;;1.20;99.90;;;;;;5092170;28;20495;-81
2024/01/18 03:31:23;;;;;;;12.18;1.55;;;1.20;99.90;;;;;;5091646;28;20500;-74
2024/01/18 03:33:48;;;;;;;2.33;0.45;;;1.20;99.90;;;;;;5091483;28;20101;-81
2024/01/18 03:36:14;;;;;;;6.93;0.43;;;1.20;99.90;;;;;;5090007;28;20056;-84
2024/01/18 03:38:40;;;;;;;7.45;0.70;;;1.20;99.90;;;;;;5091584;28;20040;-79
2024/01/18 03:41:05;;;;;;;2.85;0.40;;;1.20;99.90;;;;;;5090073;28;20134;-80
2024/01/18 03:43:31;;;;;;;2.67;0.52;;;1.10;99.90;;;;;;5090128;28;20438;-81
2024/01/18 03:45:57;;;;;;;5.28;0.68;;;1.10;99.90;;;;;;5091829;28;20389;-80
2024/01/18 03:48:22;;;;;;;3.63;0.30;;;1.00;99.90;;;;;;5091511;28;20044;-78
2024/01/18 03:50:48;;;;;;;0.32;0.10;;;1.00;99.90;;;;;;5091521;28;20052;-83
2024/01/18 03:53:14;;;;;;;1.85;0.20;;;0.90;99.90;;;;;;5091312;28;20063;-80
2024/01/18 03:55:40;;;;;;;4.60;0.93;;;0.90;99.90;;;;;;5091177;28;20040;-81
2024/01/18 03:58:06;;;;;;;3.00;0.28;;;0.90;99.90;;;;;;5089910;28;20136;-81
2024/01/18 04:00:32;;;;;;;1.45;0.30;;;0.80;99.90;;;;;;5091136;28;20036;-80
2024/01/18 04:02:58;;;;;;;1.40;0.38;;;0.80;99.90;;;;;;5091109;28;20071;-82
2024/01/18 04:05:24;;;;;;;3.40;0.50;;;0.70;99.90;;;;;;5089815;28;20148;-82
2024/01/18 04:07:49;;;;;;;2.00;0.75;;;0.70;99.90;;;;;;5089755;28;20146;-83
2024/01/18 04:10:15;;;;;;;3.28;0.47;;;0.70;99.90;;;;;;5090838;28;20047;-80
2024/01/18 04:12:42;;;;;;;1.45;0.52;;;0.60;99.90;;;;;;5091277;28;20048;-83
2024/01/18 04:15:08;;;;;;;1.80;0.28;;;0.50;99.90;;;;;;5090586;28;20446;-82
2024/01/18 04:17:34;;;;;;;1.60;0.40;;;0.50;99.90;;;;;;5089484;28;20426;-76
2024/01/18 04:20:00;;;;;;;3.08;0.55;;;0.40;99.90;;;;;;5091255;28;20124;-83
2024/01/18 04:22:26;;;;;;;3.88;0.60;;;0.50;99.90;;;;;;5089846;28;20052;-83
2024/01/18 04:24:52;;;;;;;5.78;0.93;;;0.60;99.90;;;;;;5089681;28;20054;-81
2024/01/18 04:27:17;;;;;;;4.93;1.38;;;0.60;99.90;;;;;;5089473;28;20450;-80
2024/01/18 04:29:44;;;;;;;5.65;1.27;;;0.60;99.90;;;;;;5092237;28;20052;-83
2024/01/18 04:32:10;;;;;;;8.68;1.33;;;0.60;99.90;;;;;;5095055;28;20050;-83
2024/01/18 04:34:35;;;;;;;6.22;0.98;;;0.60;99.90;;;;;;5095267;28;20044;-80
2024/01/18 04:37:01;;;;;;;6.88;1.27;;;0.50;99.90;;;;;;5094637;28;20122;-83
2024/01/18 04:39:27;;;;;;;11.48;2.00;;;0.50;99.90;;;;;;5093378;28;20044;-76
2024/01/18 04:41:52;;;;;;;6.68;1.60;;;0.40;99.90;;;;;;5093666;28;20059;-83
2024/01/18 04:44:18;;;;;;;5.93;1.05;;;0.40;99.90;;;;;;5094675;28;20138;-83
2024/01/18 04:46:44;;;;;;;6.13;1.20;;;0.30;99.90;;;;;;5094698;28;20067;-80
2024/01/18 04:49:09;;;;;;;9.27;1.23;;;0.30;99.90;;;;;;5093462;28;20478;-83
2024/01/18 04:51:35;;;;;;;6.82;0.98;;;0.30;99.90;;;;;;5092968;28;20171;-76
2024/01/18 04:54:01;;;;;;;5.55;0.80;;;0.20;99.90;;;;;;5094705;28;20059;-80
2024/01/18 04:56:27;;;;;;;3.58;0.57;;;0.20;99.90;;;;;;5093142;28;20048;-83
2024/01/18 04:58:53;;;;;;;5.20;0.82;;;0.20;99.90;;;;;;5094552;28;20075;-82
2024/01/18 05:01:18;;;;;;;7.28;1.30;;;0.30;99.90;;;;;;5093058;28;20094;-72
2024/01/18 05:03:45;;;;;;;2.50;0.50;;;0.50;99.90;;;;;;5094049;28;20048;-80
2024/01/18 05:06:11;;;;;;;3.45;0.57;;;0.60;99.90;;;;;;5094251;28;20050;-79
2024/01/18 05:08:37;;;;;;;2.65;0.98;;;0.60;99.90;;;;;;5094273;28;20128;-83
2024/01/18 05:11:02;;;;;;;4.45;0.40;;;0.60;99.90;;;;;;5094375;28;20123;-84
2024/01/18 05:13:28;;;;;;;7.07;0.40;;;0.60;99.90;;;;;;5110052;28;20047;-82
2024/01/18 05:15:55;;;;;;;2.53;0.50;;;0.60;99.90;;;;;;5093060;28;20698;-81
2024/01/18 05:18:21;;;;;;;3.83;0.65;;;0.60;99.90;;;;;;5092830;28;20052;-79
2024/01/18 05:20:46;;;;;;;3.78;0.75;;;0.50;99.90;;;;;;5092975;28;20400;-84
2024/01/18 05:23:12;;;;;;;4.93;0.70;;;0.50;99.90;;;;;;5094355;28;20097;-83
2024/01/18 05:25:38;;;;;;;4.32;0.40;;;0.40;99.90;;;;;;5094111;28;20076;-82
2024/01/18 05:28:04;;;;;;;2.08;0.28;;;0.30;99.90;;;;;;5092466;28;20052;-79
2024/01/18 05:30:29;;;;;;;4.47;0.47;;;0.30;99.90;;;;;;5094190;28;20123;-80
2024/01/18 05:32:55;;;;;;;4.30;0.50;;;0.20;99.90;;;;;;5093948;28;20127;-84
2024/01/18 05:35:21;;;;;;;5.15;0.68;;;0.20;99.90;;;;;;5092771;28;20044;-77
2024/01/18 05:37:46;;;;;;;6.90;0.80;;;0.10;99.90;;;;;;5093818;28;20196;-84
2024/01/18 05:40:12;;;;;;;1.58;0.40;;;0.10;99.90;;;;;;5093228;28;20726;-80
2024/01/18 05:42:38;;;;;;;12.45;1.60;;;0.00;99.90;;;;;;5092522;28;20048;-84
2024/01/18 05:45:05;;;;;;;4.13;0.40;;;-0.10;99.90;;;;;;5092530;28;20074;-78
2024/01/18 05:47:31;;;;;;;4.70;1.80;;;-0.10;99.90;;;;;;5093370;28;20076;-81
2024/01/18 05:49:57;;;;;;;4.18;0.77;;;-0.10;99.90;;;;;;5093733;28;20509;-79
2024/01/18 05:52:22;;;;;;;4.68;0.70;;;-0.20;99.90;;;;;;5093500;28;20496;-79
2024/01/18 05:54:48;;;;;;;6.55;0.70;;;-0.20;99.90;;;;;;5093423;28;20048;-75
2024/01/18 05:57:14;;;;;;;1.98;0.43;;;-0.20;99.90;;;;;;5093422;28;20733;-77
2024/01/18 05:59:39;;;;;;;3.85;0.60;;;-0.30;99.90;;;;;;5093240;28;20040;-80
2024/01/18 06:02:05;;;;;;;4.40;1.33;;;-0.20;99.90;;;;;;5093289;28;20047;-83
2024/01/18 06:04:31;;;;;;;3.95;0.85;;;-0.20;99.90;;;;;;5093222;28;20070;-74
2024/01/18 06:06:57;;;;;;;6.13;1.02;;;-0.20;99.90;;;;;;5093273;28;20048;-80
2024/01/18 06:09:23;;;;;;;5.50;0.50;;;-0.10;99.90;;;;;;5092280;28;20144;-73
2024/01/18 06:11:49;;;;;;;4.20;0.57;;;0.00;99.90;;;;;;5093392;28;20544;-77
2024/01/18 06:14:17;;;;;;;4.47;0.43;;;0.00;99.90;;;;;;5093228;28;20056;-75
2024/01/18 06:16:43;;;;;;;4.68;1.00;;;0.00;99.90;;;;;;5091771;28;20051;-78
2024/01/18 06:19:10;;;;;;;1.75;0.43;;;0.00;99.90;;;;;;5093326;28;20055;-83
2024/01/18 06:21:36;;;;;;;3.25;0.60;;;0.00;99.90;;;;;;5091481;28;20461;-76
2024/01/18 06:24:01;;;;;;;2.53;0.52;;;-0.10;99.90;;;;;;5093006;28;20048;-84
2024/01/18 06:26:27;;;;;;;4.63;0.73;;;-0.10;99.90;;;;;;5091535;28;20075;-76
2024/01/18 06:28:53;;;;;;;5.78;0.70;;;-0.10;99.90;;;;;;5091567;28;20047;-80
2024/01/18 06:31:22;;;;;;;3.72;0.93;;;-0.10;99.90;;;;;;5091659;28;20071;-78
2024/01/18 06:33:47;;;;;;;6.82;0.70;;;-0.10;99.90;;;;;;5074510;28;20044;-74
2024/01/18 06:36:14;;;;;;;2.13;0.45;;;-0.20;99.90;;;;;;5091419;28;20175;-80
2024/01/18 06:38:40;;;;;;;5.38;0.60;;;-0.20;99.90;;;;;;5091200;28;20064;-77
2024/01/18 06:41:06;;;;;;;5.00;1.00;;;-0.20;99.90;;;;;;5092364;28;20512;-78
2024/01/18 06:43:31;;;;;;;4.80;0.60;;;-0.30;99.90;;;;;;5090826;28;20044;-81
2024/01/18 06:45:57;;;;;;;6.00;0.50;;;-0.30;99.90;;;;;;5091213;28;20055;-78
2024/01/18 06:48:23;;;;;;;4.00;1.25;;;-0.30;99.90;;;;;;5092252;28;20499;-79
2024/01/18 06:50:50;;;;;;;3.05;0.70;;;-0.30;99.90;;;;;;5092261;28;20055;-81
2024/01/18 06:53:16;;;;;;;6.40;0.82;;;-0.30;99.90;;;;;;5090810;28;20083;-75
2024/01/18 06:55:41;;;;;;;6.43;1.48;;;-0.30;99.90;;;;;;5090721;28;20398;-81
2024/01/18 06:58:07;;;;;;;5.95;0.50;;;-0.30;99.90;;;;;;5090729;28;20052;-81
2024/01/18 07:00:33;;;;;;;3.85;0.52;;;-0.20;99.90;;;;;;5074040;28;20441;-75
2024/01/18 07:02:59;;;;;;;2.90;0.70;;;-0.20;99.90;;;;;;5092008;28;20095;-77
2024/01/18 07:05:25;;;;;;;7.32;0.70;;;-0.20;99.90;;;;;;5090536;28;20095;-81
2024/01/18 07:07:51;;;;;;;3.20;0.57;;;-0.20;99.90;;;;;;5092120;28;20471;-74
2024/01/18 07:10:20;;;;;;;7.53;1.70;;;-0.30;99.90;;;;;;5090772;28;20389;-82
2024/01/18 07:12:46;;;;;;;5.63;1.02;;;-0.20;99.90;;;;;;5092017;28;20131;-75
2024/01/18 07:15:12;;;;;;;4.93;1.25;;;-0.20;99.90;;;;;;5092490;28;20132;-82
2024/01/18 07:17:38;;;;;;;3.72;0.70;;;-0.10;99.90;;;;;;5091949;28;20127;-78
2024/01/18 07:20:04;;;;;;;2.33;0.45;;;0.10;99.90;;;;;;5092150;28;20547;-80
2024/01/18 07:22:30;;;;;;;7.82;0.40;;;0.20;99.90;;;;;;5092111;28;20048;-81
2024/01/18 07:24:56;;;;;;;7.00;0.80;;;0.30;99.90;;;;;;5091866;28;20063;-77
2024/01/18 07:27:22;;;;;;;15.48;2.80;;;0.40;99.90;;;;;;5091665;28;20437;-76
2024/01/18 07:29:49;;;;;;;5.88;0.90;;;0.50;99.90;;;;;;5091793;28;20044;-83
2024/01/18 07:32:16;;;;;;;8.70;2.40;;;0.50;99.90;;;;;;5090405;28;20478;-82
2024/01/18 07:34:41;;;;;;;6.70;1.10;;;0.60;99.90;;;;;;5091559;28;20063;-72
2024/01/18 07:37:08;;;;;;;23.08;1.00;;;0.60;99.90;;;;;;5090410;28;20048;-75
2024/01/18 07:39:34;;;;;;;11.43;1.08;;;0.70;99.90;;;;;;5090892;28;20503;-82
2024/01/18 07:42:00;;;;;;;2.75;0.70;;;0.70;99.90;;;;;;5089759;28;20063;-78
2024/01/18 07:44:27;;;;;;;6.38;1.17;;;0.70;99.90;;;;;;5091611;28;20097;-77
2024/01/18 07:46:53;;;;;;;5.32;0.60;;;0.70;99.90;;;;;;5089754;28;20083;-76
2024/01/18 07:49:20;;;;;;;2.55;0.40;;;0.60;99.90;;;;;;5091318;28;20075;-79
2024/01/18 07:51:46;;;;;;;4.78;0.70;;;0.60;99.90;;;;;;5091610;28;20407;-80
2024/01/18 07:54:13;;;;;;;7.78;0.82;;;0.70;99.90;;;;;;5089784;28;20081;-83
2024/01/18 07:56:39;;;;;;;0.52;0.10;;;0.60;99.90;;;;;;5090208;28;20052;-75
2024/01/18 07:59:04;;;;;;;1.42;0.68;;;0.60;99.90;;;;;;5091136;28;20089;-81
2024/01/18 08:01:30;;;;;;;2.88;0.38;;;0.70;99.90;;;;;;5072824;28;20052;-82
2024/01/18 08:03:56;;;;;;;1.40;0.30;;;0.70;99.90;;;;;;5090924;28;20044;-75
2024/01/18 08:06:21;;;;;;;0.82;0.32;;;0.70;99.90;;;;;;5091317;28;20055;-83
2024/01/18 08:08:47;;;;;;;1.45;0.30;;;0.80;99.90;;;;;;5091535;28;20047;-78
2024/01/18 08:11:13;;;;;;;1.70;0.40;;;0.90;99.90;;;;;;5091623;28;20052;-84
2024/01/18 08:13:40;;;;;;;3.95;0.60;;;1.00;99.90;;;;;;5089588;28;20491;-80
2024/01/18 08:16:07;;;;;;;2.85;0.40;;;1.00;99.90;;;;;;5090318;28;20178;-73
2024/01/18 08:18:33;;;;;;;4.18;0.35;;;1.10;99.90;;;;;;5089974;28;20063;-84
2024/01/18 08:20:59;;;;;;;1.45;0.20;;;1.20;99.90;;;;;;5089842;28;20052;-81
2024/01/18 08:23:25;;;;;;;0.43;0.15;;;1.20;99.90;;;;;;5090819;28;20091;-80
2024/01/18 08:25:51;;;;;;;0.63;0.17;;;1.30;99.90;;;;;;5091189;28;20499;-83
2024/01/18 08:28:18;;;;;;;2.28;0.30;;;1.30;99.90;;;;;;5091027;28;20056;-82
2024/01/18 08:30:44;;;;;;;4.18;0.20;;;1.20;99.90;;;;;;5090834;28;20044;-79
2024/01/18 08:33:10;;;;;;;2.80;0.22;;;1.20;99.90;;;;;;5090997;28;20091;-82
2024/01/18 08:35:37;;;;;;;2.40;0.32;;;1.10;99.90;;;;;;5091458;28;20055;-78
2024/01/18 08:38:03;;;;;;;5.40;0.55;;;1.10;99.90;;;;;;5091154;28;20044;-83
2024/01/18 08:40:30;;;;;;;5.07;0.50;;;1.20;99.90;;;;;;5091045;28;20054;-78
2024/01/18 08:42:56;;;;;;;2.88;0.47;;;1.20;99.90;;;;;;5091282;28;20047;-80
2024/01/18 08:45:23;;;;;;;6.70;0.70;;;1.10;99.90;;;;;;5089824;28;20401;-77
2024/01/18 08:47:49;;;;;;;20.13;1.60;;;1.20;99.90;;;;;;5090980;28;20044;-83
2024/01/18 08:50:15;;;;;;;2.60;0.63;;;1.30;99.90;;;;;;5090914;28;20097;-81
2024/01/18 08:52:42;;;;;;;6.57;0.50;;;1.30;99.90;;;;;;5090752;28;20040;-77
2024/01/18 08:55:08;;;;;;;1.63;0.38;;;1.40;99.90;;;;;;5089763;28;20142;-74
2024/01/18 08:57:34;;;;;;;4.72;0.73;;;1.50;99.90;;;;;;5090756;28;20051;-79
2024/01/18 09:00:00;;;;;;;5.00;0.63;;;1.50;99.90;;;;;;5089130;28;20136;-83
2024/01/18 09:02:26;;;;;;;9.27;0.90;;;1.50;99.90;;;;;;5090637;28;20082;-77
2024/01/18 09:04:52;;;;;;;8.38;0.70;;;1.60;99.90;;;;;;5090310;28;20048;-74
2024/01/18 09:07:17;;;;;;;11.85;0.88;;;1.60;99.90;;;;;;5090740;28;20051;-76
2024/01/18 09:09:44;;;;;;;7.93;0.90;;;1.60;99.90;;;;;;5090393;28;20441;-74
2024/01/18 09:12:11;;;;;;;3.15;0.32;;;1.60;99.90;;;;;;5090947;28;20056;-78
2024/01/18 09:14:36;;;;;;;5.45;0.80;;;1.50;99.90;;;;;;5089247;28;20143;-78
2024/01/18 09:17:02;;;;;;;4.63;0.60;;;1.50;99.90;;;;;;5090798;28;20127;-76
2024/01/18 09:19:30;;;;;;;5.22;0.60;;;1.60;99.90;;;;;;5093770;28;20446;-82
2024/01/18 09:21:56;;;;;;;4.20;0.50;;;1.60;99.90;;;;;;5094446;28;20044;-76
2024/01/18 09:24:23;;;;;;;6.75;1.83;;;1.60;99.90;;;;;;5093135;28;20127;-78
2024/01/18 09:26:49;;;;;;;5.97;1.60;;;1.70;99.90;;;;;;5075565;28;20058;-79
2024/01/18 09:29:14;;;;;;;8.18;1.20;;;1.80;99.90;;;;;;5094235;28;20458;-74
2024/01/18 09:31:40;;;;;;;4.22;0.82;;;2.00;99.90;;;;;;5094397;28;20048;-82
2024/01/18 09:34:06;;;;;;;6.43;0.60;;;2.40;99.90;;;;;;5094192;28;20195;-82
2024/01/18 09:36:32;;;;;;;2.42;0.88;;;2.60;99.90;;;;;;5092827;28;20483;-83
2024/01/18 09:38:57;;;;;;;5.22;0.90;;;2.90;99.90;;;;;;5093902;28;20421;-82
2024/01/18 09:41:26;;;;;;;6.05;0.60;;;2.90;99.90;;;;;;5093996;28;20462;-76
2024/01/18 09:43:55;;;;;;;4.28;0.77;;;3.10;99.90;;;;;;5092854;28;20044;-82
2024/01/18 09:46:23;;;;;;;5.10;0.82;;;3.40;99.90;;;;;;5093914;28;20056;-82
2024/01/18 09:48:49;;;;;;;6.85;0.95;;;3.80;99.90;;;;;;5092251;28;20052;-81
2024/01/18 09:51:15;;;;;;;3.50;1.10;;;4.10;99.90;;;;;;5075427;28;20056;-78
2024/01/18 09:53:48;;;;;;;5.18;0.70;;;4.30;99.90;;;;;;5075310;28;20052;-81
2024/01/18 09:56:31;;;;;;;3.95;0.70;;;4.60;99.90;;;;;;5092446;28;20055;-83
2024/01/18 09:58:58;;;;;;;4.57;0.77;;;4.50;99.90;;;;;;5093697;28;20048;-73
2024/01/18 10:01:24;;;;;;;5.10;1.00;;;4.50;99.90;;;;;;5093538;28;20048;-84
2024/01/18 10:03:51;;;;;;;6.55;1.48;;;4.30;99.90;;;;;;5076396;28;20384;-77
2024/01/18 10:06:17;;;;;;;6.72;1.15;;;4.20;99.90;;;;;;5093538;28;20055;-72
2024/01/18 10:08:44;;;;;;;9.05;1.70;;;4.00;99.90;;;;;;5093396;28;20048;-72
2024/01/18 10:11:10;;;;;;;8.82;0.95;;;4.00;99.90;;;;;;5093322;28;20052;-74
2024/01/18 10:13:56;;;;;;;5.22;1.00;;;4.10;99.90;;;;;;5091659;28;20100;-81
2024/01/18 10:16:35;;;;;;;7.32;0.70;;;4.10;99.90;;;;;;5091960;28;20056;-74
2024/01/18 10:19:18;;;;;;;2.95;1.13;;;4.20;99.90;;;;;;5093061;28;20044;-74
2024/01/18 10:21:46;;;;;;;10.18;0.70;;;4.60;99.90;;;;;;5074718;28;20052;-71
2024/01/18 10:24:13;;;;;;;6.57;0.80;;;5.00;99.90;;;;;;5093107;28;20047;-72
2024/01/18 10:26:40;;;;;;;4.60;0.80;;;5.60;99.90;;;;;;5093171;28;20164;-72
2024/01/18 10:29:08;;;;;;;6.13;2.03;;;5.90;99.90;;;;;;5091304;28;20044;-73
2024/01/18 10:31:38;;;;;;;8.98;1.10;;;5.60;99.90;;;;;;5091828;28;20442;-73
2024/01/18 10:34:04;;;;;;;2.53;0.52;;;5.50;99.90;;;;;;5091594;28;20055;-74
2024/01/18 10:36:31;;;;;;;7.07;0.77;;;5.50;99.90;;;;;;5092545;28;20047;-75
2024/01/18 10:38:57;;;;;;;4.93;1.33;;;5.50;99.90;;;;;;5092217;28;20075;-74
2024/01/18 10:41:23;;;;;;;4.63;0.93;;;5.60;99.90;;;;;;5092406;28;20087;-73
2024/01/18 10:43:49;;;;;;;5.63;0.57;;;5.50;99.90;;;;;;5092128;28;20552;-72
2024/01/18 10:46:14;;;;;;;4.65;1.33;;;5.10;99.90;;;;;;5092569;28;20218;-74
2024/01/18 10:48:47;;;;;;;5.28;0.93;;;4.80;99.90;;;;;;5092694;28;20487;-82
2024/01/18 10:51:13;;;;;;;7.82;0.80;;;4.60;99.90;;;;;;5092096;28;20131;-76
2024/01/18 10:53:41;;;;;;;6.22;0.60;;;4.50;99.90;;;;;;5092609;28;20123;-79
2024/01/18 10:56:07;;;;;;;3.60;1.13;;;4.80;99.90;;;;;;5091219;28;20059;-73
2024/01/18 10:58:33;;;;;;;10.90;1.10;;;5.10;99.90;;;;;;5092562;28;20059;-76
2024/01/18 11:00:59;;;;;;;2.88;0.70;;;5.80;99.90;;;;;;5092169;28;20487;-76
2024/01/18 11:03:25;;;;;;;2.33;0.80;;;6.90;99.90;;;;;;5092342;28;20302;-77
2024/01/18 11:05:51;;;;;;;3.90;0.73;;;8.10;99.90;;;;;;5073601;28;20052;-79
2024/01/18 11:08:18;;;;;;;7.88;0.82;;;8.10;99.90;;;;;;5090717;28;20044;-77
2024/01/18 11:10:47;;;;;;;2.20;0.43;;;7.60;99.90;;;;;;5090385;28;20051;-72
2024/01/18 11:13:17;;;;;;;6.32;1.05;;;7.00;99.90;;;;;;5073808;28;20051;-79
2024/01/18 11:15:44;;;;;;;9.80;2.03;;;6.30;99.90;;;;;;5090596;28;20110;-77
2024/01/18 11:18:11;;;;;;;13.80;2.05;;;5.70;99.90;;;;;;5091738;28;20090;-83
2024/01/18 11:20:59;;;;;;;4.80;0.93;;;5.20;99.90;;;;;;5091874;28;20093;-77
2024/01/18 11:23:39;;;;;;;4.28;0.85;;;4.80;99.90;;;;;;5091716;28;20052;-74
2024/01/18 11:26:08;;;;;;;4.80;0.90;;;4.50;99.90;;;;;;5090140;28;20063;-76
2024/01/18 11:28:35;;;;;;;7.75;1.10;;;4.20;99.90;;;;;;5073571;28;20112;-73
2024/01/18 11:31:01;;;;;;;5.65;0.80;;;4.00;99.90;;;;;;5090130;28;20055;-76
2024/01/18 11:33:27;;;;;;;11.90;1.23;;;3.90;99.90;;;;;;5090071;28;20036;-72
2024/01/18 11:35:55;;;;;;;6.57;1.63;;;3.80;99.90;;;;;;5091246;28;20127;-77
2024/01/18 11:38:20;;;;;;;7.53;2.38;;;3.80;99.90;;;;;;5090514;28;20048;-79
2024/01/18 11:40:50;;;;;;;11.05;2.83;;;4.80;99.90;;;;;;5089226;28;20511;-76
2024/01/18 11:43:16;;;;;;;13.30;3.25;;;6.20;99.90;;;;;;5089940;28;20059;-84
2024/01/18 11:45:46;;;;;;;10.18;2.83;;;7.40;99.90;;;;;;5091865;28;20079;-77
2024/01/18 11:48:13;;;;;;;7.88;1.75;;;8.30;99.90;;;;;;5091319;28;20052;-77
2024/01/18 11:50:39;;;;;;;7.35;1.33;;;9.30;99.90;;;;;;5091207;28;20078;-80
2024/01/18 11:53:06;;;;;;;4.80;0.95;;;10.40;99.90;;;;;;5073434;28;20516;-78
2024/01/18 11:55:36;;;;;;;4.25;0.80;;;11.50;99.90;;;;;;5091442;28;20036;-79
2024/01/18 11:58:03;;;;;;;10.30;1.10;;;12.40;99.90;;;;;;5089783;28;20047;-81
2024/01/18 12:00:31;;;;;;;4.22;0.65;;;13.30;99.90;;;;;;5091925;28;20097;-81
2024/01/18 12:02:57;;;;;;;7.90;0.73;;;14.00;99.90;;;;;;5091332;28;20118;-78
2024/01/18 12:05:25;;;;;;;6.10;0.77;;;14.50;99.20;;;;;;5091065;28;20144;-80
2024/01/18 12:07:51;;;;;;;4.80;0.93;;;15.10;98.10;;;;;;5089813;28;20564;-79
2024/01/18 12:10:18;;;;;;;4.95;1.00;;;15.50;96.40;;;;;;5089964;28;20492;-78
2024/01/18 12:12:45;;;;;;;10.00;1.45;;;15.50;95.10;;;;;;5091496;28;20222;-84
2024/01/18 12:15:16;;;;;;;3.05;0.60;;;15.70;94.20;;;;;;5090946;28;20075;-77
2024/01/18 12:17:43;;;;;;;4.93;0.85;;;16.10;93.20;;;;;;5091519;28;20040;-81
2024/01/18 12:20:16;;;;;;;5.20;1.33;;;16.50;91.90;;;;;;5090880;28;20044;-82
2024/01/18 12:22:43;;;;;;;2.70;0.45;;;16.80;88.80;;;;;;5091044;28;20056;-81
2024/01/18 12:25:09;;;;;;;3.70;0.68;;;17.00;88.30;;;;;;5090997;28;20456;-79
2024/01/18 12:27:35;;;;;;;3.70;0.80;;;17.20;86.80;;;;;;5089685;28;20052;-84
2024/01/18 12:30:03;;;;;;;5.90;1.38;;;16.80;82.90;;;;;;5089582;28;20055;-81
2024/01/18 12:32:29;;;;;;;4.63;0.70;;;17.10;82.60;;;;;;5072508;28;20054;-82
2024/01/18 12:34:57;;;;;;;7.82;1.15;;;17.30;82.00;;;;;;5089742;28;20048;-85
2024/01/18 12:37:24;;;;;;;4.60;0.40;;;17.60;81.10;;;;;;5090944;28;20519;-74
2024/01/18 12:39:53;;;;;;;3.92;0.77;;;17.30;75.80;;;;;;5093425;28;20059;-77
2024/01/18 12:42:20;;;;;;;4.38;0.82;;;17.60;76.30;;;;;;5091433;28;20056;-80
2024/01/18 12:44:52;;;;;;;3.78;0.77;;;16.80;74.40;;;;;;5090786;28;20097;-74
2024/01/18 12:47:18;;;;;;;4.75;0.88;;;16.50;73.60;;;;;;5090586;28;20512;-76
2024/01/18 12:49:44;;;;;;;8.82;1.58;;;16.00;69.80;;;;;;5091052;28;20044;-76